Lac-Bouchette, Canada
Current Conditions -  °F | °C
As of 11:00 AM on Monday 22 Dec 2014 (Local Time) from CYRJ Reporting Station
Light Snow Light Snow  
Wind Chill:   Ceiling: 900
Heat Index:   Visibility: 8mi
Dew Point:   Wind: 2mph
Humidity: 79%   Direction: NA
Pressure: 30.41"   Gusts: NA
Location:  48.27°N, 72.17°W
Report Text: CYRJ 221600Z VRB02KT 8SM -SN OVC009 M13/M16 A3041 RMK SF8 SLP315
Loading
Personal Weather Stations






























Interactive Weather Map New forecast layout! Learn more

10-Day Weather Forecast

Advertisements
Track Severe Weather on mobile